sensor_id;sensor_type;location;lat;lon;timestamp;P1;durP1;ratioP1;P2;durP2;ratioP2
43429;SDS011;29028;43.234;27.896;2022-10-15T04:01:37;5.07;;;3.60;;
43429;SDS011;29028;43.234;27.896;2022-10-15T04:01:59;5.75;;;3.47;;
43429;SDS011;29028;43.234;27.896;2022-10-15T04:02:20;4.47;;;3.33;;
43429;SDS011;29028;43.234;27.896;2022-10-15T04:02:41;4.80;;;3.40;;
43429;SDS011;29028;43.234;27.896;2022-10-15T04:03:02;5.38;;;3.53;;
43429;SDS011;29028;43.234;27.896;2022-10-15T04:03:23;4.57;;;3.53;;
43429;SDS011;29028;43.234;27.896;2022-10-15T04:03:45;4.60;;;3.33;;
43429;SDS011;29028;43.234;27.896;2022-10-15T04:04:06;4.57;;;3.50;;
43429;SDS011;29028;43.234;27.896;2022-10-15T04:04:26;5.30;;;3.67;;
43429;SDS011;29028;43.234;27.896;2022-10-15T04:04:50;5.28;;;3.38;;
43429;SDS011;29028;43.234;27.896;2022-10-15T04:05:12;6.32;;;3.70;;
43429;SDS011;29028;43.234;27.896;2022-10-15T04:05:33;5.20;;;3.65;;
43429;SDS011;29028;43.234;27.896;2022-10-15T04:05:54;5.82;;;4.15;;
43429;SDS011;29028;43.234;27.896;2022-10-15T04:06:15;5.43;;;4.00;;
43429;SDS011;29028;43.234;27.896;2022-10-15T04:06:36;5.35;;;3.72;;
43429;SDS011;29028;43.234;27.896;2022-10-15T04:06:57;6.38;;;4.00;;
43429;SDS011;29028;43.234;27.896;2022-10-15T04:07:18;4.87;;;3.70;;
43429;SDS011;29028;43.234;27.896;2022-10-15T04:07:39;5.32;;;3.58;;
43429;SDS011;29028;43.234;27.896;2022-10-15T04:08:02;5.22;;;3.72;;
43429;SDS011;29028;43.234;27.896;2022-10-15T04:08:23;5.55;;;3.83;;
43429;SDS011;29028;43.234;27.896;2022-10-15T04:08:44;5.43;;;3.80;;
43429;SDS011;29028;43.234;27.896;2022-10-15T04:09:04;4.97;;;3.60;;
43429;SDS011;29028;43.234;27.896;2022-10-15T04:09:26;5.10;;;3.65;;
43429;SDS011;29028;43.234;27.896;2022-10-15T04:09:48;5.13;;;3.72;;
43429;SDS011;29028;43.234;27.896;2022-10-15T04:10:09;5.10;;;3.83;;
43429;SDS011;29028;43.234;27.896;2022-10-15T04:10:30;4.75;;;3.90;;
43429;SDS011;29028;43.234;27.896;2022-10-15T04:10:52;5.55;;;3.75;;
43429;SDS011;29028;43.234;27.896;2022-10-15T04:11:13;5.35;;;3.72;;
43429;SDS011;29028;43.234;27.896;2022-10-15T04:11:34;4.65;;;3.60;;
43429;SDS011;29028;43.234;27.896;2022-10-15T04:11:55;4.53;;;3.63;;
43429;SDS011;29028;43.234;27.896;2022-10-15T04:12:17;5.57;;;3.78;;
43429;SDS011;29028;43.234;27.896;2022-10-15T04:12:38;5.63;;;3.83;;
43429;SDS011;29028;43.234;27.896;2022-10-15T04:12:59;5.00;;;3.40;;
43429;SDS011;29028;43.234;27.896;2022-10-15T04:13:20;6.13;;;3.27;;
43429;SDS011;29028;43.234;27.896;2022-10-15T04:13:42;4.72;;;3.17;;
43429;SDS011;29028;43.234;27.896;2022-10-15T04:14:04;4.50;;;3.15;;
43429;SDS011;29028;43.234;27.896;2022-10-15T04:14:25;4.32;;;3.28;;
43429;SDS011;29028;43.234;27.896;2022-10-15T04:14:46;5.00;;;3.92;;
43429;SDS011;29028;43.234;27.896;2022-10-15T04:15:07;5.40;;;3.92;;
43429;SDS011;29028;43.234;27.896;2022-10-15T04:15:29;5.60;;;3.80;;
43429;SDS011;29028;43.234;27.896;2022-10-15T04:15:50;4.80;;;3.65;;
43429;SDS011;29028;43.234;27.896;2022-10-15T04:16:11;4.80;;;3.58;;
43429;SDS011;29028;43.234;27.896;2022-10-15T04:16:32;5.07;;;4.10;;
43429;SDS011;29028;43.234;27.896;2022-10-15T04:16:55;5.55;;;3.70;;
43429;SDS011;29028;43.234;27.896;2022-10-15T04:17:18;4.68;;;3.60;;
43429;SDS011;29028;43.234;27.896;2022-10-15T04:17:39;5.63;;;3.72;;
43429;SDS011;29028;43.234;27.896;2022-10-15T04:17:59;4.93;;;2.77;;
43429;SDS011;29028;43.234;27.896;2022-10-15T04:18:21;4.97;;;3.25;;
43429;SDS011;29028;43.234;27.896;2022-10-15T04:18:41;5.03;;;3.85;;
43429;SDS011;29028;43.234;27.896;2022-10-15T04:19:03;5.20;;;3.90;;
43429;SDS011;29028;43.234;27.896;2022-10-15T04:19:24;5.15;;;3.67;;
43429;SDS011;29028;43.234;27.896;2022-10-15T04:19:45;6.40;;;3.90;;
43429;SDS011;29028;43.234;27.896;2022-10-15T04:20:06;5.53;;;4.03;;
43429;SDS011;29028;43.234;27.896;2022-10-15T04:20:28;7.30;;;4.50;;
43429;SDS011;29028;43.234;27.896;2022-10-15T04:20:50;5.40;;;4.13;;
43429;SDS011;29028;43.234;27.896;2022-10-15T04:21:10;6.05;;;4.20;;
43429;SDS011;29028;43.234;27.896;2022-10-15T04:21:31;5.90;;;3.95;;
43429;SDS011;29028;43.234;27.896;2022-10-15T04:21:52;5.90;;;3.90;;
43429;SDS011;29028;43.234;27.896;2022-10-15T04:22:15;6.13;;;4.35;;
43429;SDS011;29028;43.234;27.896;2022-10-15T04:22:36;5.47;;;4.25;;
43429;SDS011;29028;43.234;27.896;2022-10-15T04:22:57;6.22;;;4.05;;
43429;SDS011;29028;43.234;27.896;2022-10-15T04:23:17;7.10;;;4.60;;
43429;SDS011;29028;43.234;27.896;2022-10-15T04:23:39;4.63;;;3.95;;
43429;SDS011;29028;43.234;27.896;2022-10-15T04:24:00;6.97;;;4.50;;
43429;SDS011;29028;43.234;27.896;2022-10-15T04:24:21;6.37;;;4.17;;
43429;SDS011;29028;43.234;27.896;2022-10-15T04:24:42;6.97;;;4.05;;
43429;SDS011;29028;43.234;27.896;2022-10-15T04:25:03;6.57;;;4.28;;
43429;SDS011;29028;43.234;27.896;2022-10-15T04:25:26;6.63;;;4.30;;
43429;SDS011;29028;43.234;27.896;2022-10-15T04:25:47;5.20;;;4.20;;
43429;SDS011;29028;43.234;27.896;2022-10-15T04:26:08;5.63;;;4.10;;
43429;SDS011;29028;43.234;27.896;2022-10-15T04:26:29;5.82;;;4.50;;
43429;SDS011;29028;43.234;27.896;2022-10-15T04:26:49;5.78;;;4.50;;
43429;SDS011;29028;43.234;27.896;2022-10-15T04:27:12;6.97;;;4.72;;
43429;SDS011;29028;43.234;27.896;2022-10-15T04:27:33;6.20;;;4.57;;
43429;SDS011;29028;43.234;27.896;2022-10-15T04:27:54;5.88;;;4.35;;
43429;SDS011;29028;43.234;27.896;2022-10-15T04:28:15;5.78;;;4.40;;
43429;SDS011;29028;43.234;27.896;2022-10-15T04:28:37;5.57;;;4.40;;
43429;SDS011;29028;43.234;27.896;2022-10-15T04:28:58;5.93;;;4.32;;
43429;SDS011;29028;43.234;27.896;2022-10-15T04:29:18;5.22;;;4.18;;
43429;SDS011;29028;43.234;27.896;2022-10-15T04:29:39;4.85;;;4.30;;
43429;SDS011;29028;43.234;27.896;2022-10-15T04:30:01;6.00;;;4.55;;
43429;SDS011;29028;43.234;27.896;2022-10-15T04:30:22;6.38;;;4.40;;
43429;SDS011;29028;43.234;27.896;2022-10-15T04:30:43;7.38;;;5.00;;
43429;SDS011;29028;43.234;27.896;2022-10-15T04:31:04;7.25;;;4.82;;
43429;SDS011;29028;43.234;27.896;2022-10-15T04:31:26;6.53;;;4.80;;
43429;SDS011;29028;43.234;27.896;2022-10-15T04:31:47;6.60;;;4.63;;
43429;SDS011;29028;43.234;27.896;2022-10-15T04:32:10;6.68;;;4.63;;
43429;SDS011;29028;43.234;27.896;2022-10-15T04:32:33;5.82;;;4.57;;
43429;SDS011;29028;43.234;27.896;2022-10-15T04:32:54;6.63;;;4.80;;
43429;SDS011;29028;43.234;27.896;2022-10-15T04:33:16;6.55;;;4.60;;
43429;SDS011;29028;43.234;27.896;2022-10-15T04:33:36;6.40;;;4.60;;
43429;SDS011;29028;43.234;27.896;2022-10-15T04:33:57;6.03;;;4.70;;
43429;SDS011;29028;43.234;27.896;2022-10-15T04:34:18;6.10;;;4.65;;
43429;SDS011;29028;43.234;27.896;2022-10-15T04:34:40;5.60;;;4.20;;
43429;SDS011;29028;43.234;27.896;2022-10-15T04:35:01;6.63;;;4.38;;
43429;SDS011;29028;43.234;27.896;2022-10-15T04:35:22;7.15;;;4.50;;
43429;SDS011;29028;43.234;27.896;2022-10-15T04:35:43;6.80;;;4.93;;
43429;SDS011;29028;43.234;27.896;2022-10-15T04:36:05;6.70;;;4.68;;
43429;SDS011;29028;43.234;27.896;2022-10-15T04:36:27;6.20;;;4.65;;
43429;SDS011;29028;43.234;27.896;2022-10-15T04:36:48;6.37;;;4.40;;
43429;SDS011;29028;43.234;27.896;2022-10-15T04:37:09;6.07;;;4.60;;
43429;SDS011;29028;43.234;27.896;2022-10-15T04:37:31;6.68;;;4.90;;
43429;SDS011;29028;43.234;27.896;2022-10-15T04:37:52;7.18;;;4.75;;
43429;SDS011;29028;43.234;27.896;2022-10-15T04:38:13;6.50;;;4.43;;
43429;SDS011;29028;43.234;27.896;2022-10-15T04:38:34;7.28;;;4.63;;
43429;SDS011;29028;43.234;27.896;2022-10-15T04:38:56;6.70;;;4.40;;
43429;SDS011;29028;43.234;27.896;2022-10-15T04:39:16;6.53;;;4.45;;
43429;SDS011;29028;43.234;27.896;2022-10-15T04:39:37;7.50;;;4.53;;
43429;SDS011;29028;43.234;27.896;2022-10-15T04:39:58;6.37;;;4.50;;
43429;SDS011;29028;43.234;27.896;2022-10-15T04:40:19;6.28;;;4.55;;
43429;SDS011;29028;43.234;27.896;2022-10-15T04:40:41;5.43;;;4.20;;
43429;SDS011;29028;43.234;27.896;2022-10-15T04:41:02;5.60;;;4.30;;
43429;SDS011;29028;43.234;27.896;2022-10-15T04:41:24;5.78;;;4.15;;
43429;SDS011;29028;43.234;27.896;2022-10-15T04:41:45;7.47;;;4.50;;
43429;SDS011;29028;43.234;27.896;2022-10-15T04:42:08;5.60;;;4.47;;
43429;SDS011;29028;43.234;27.896;2022-10-15T04:42:28;5.63;;;4.28;;
43429;SDS011;29028;43.234;27.896;2022-10-15T04:42:50;6.15;;;4.40;;
43429;SDS011;29028;43.234;27.896;2022-10-15T04:43:11;6.85;;;4.13;;
43429;SDS011;29028;43.234;27.896;2022-10-15T04:43:32;6.68;;;4.28;;
43429;SDS011;29028;43.234;27.896;2022-10-15T04:43:53;5.55;;;4.15;;
43429;SDS011;29028;43.234;27.896;2022-10-15T04:44:15;5.40;;;4.40;;
43429;SDS011;29028;43.234;27.896;2022-10-15T04:44:36;6.03;;;4.87;;
43429;SDS011;29028;43.234;27.896;2022-10-15T04:44:56;5.80;;;4.15;;
43429;SDS011;29028;43.234;27.896;2022-10-15T04:45:17;5.80;;;3.97;;
43429;SDS011;29028;43.234;27.896;2022-10-15T04:45:39;5.90;;;4.30;;
43429;SDS011;29028;43.234;27.896;2022-10-15T04:46:01;5.43;;;4.20;;
43429;SDS011;29028;43.234;27.896;2022-10-15T04:46:23;5.85;;;4.65;;
43429;SDS011;29028;43.234;27.896;2022-10-15T04:46:44;6.63;;;4.38;;
43429;SDS011;29028;43.234;27.896;2022-10-15T04:47:06;6.32;;;4.28;;
43429;SDS011;29028;43.234;27.896;2022-10-15T04:47:28;5.47;;;4.10;;
43429;SDS011;29028;43.234;27.896;2022-10-15T04:47:49;5.57;;;4.35;;
43429;SDS011;29028;43.234;27.896;2022-10-15T04:48:10;6.90;;;4.50;;
43429;SDS011;29028;43.234;27.896;2022-10-15T04:48:32;6.63;;;4.60;;
43429;SDS011;29028;43.234;27.896;2022-10-15T04:48:55;5.45;;;4.18;;
43429;SDS011;29028;43.234;27.896;2022-10-15T04:49:17;5.30;;;3.97;;
43429;SDS011;29028;43.234;27.896;2022-10-15T04:49:38;5.25;;;4.10;;
43429;SDS011;29028;43.234;27.896;2022-10-15T04:50:00;5.40;;;4.40;;
43429;SDS011;29028;43.234;27.896;2022-10-15T04:50:21;6.32;;;4.40;;
43429;SDS011;29028;43.234;27.896;2022-10-15T04:50:42;6.38;;;4.45;;
43429;SDS011;29028;43.234;27.896;2022-10-15T04:51:03;5.28;;;4.07;;
43429;SDS011;29028;43.234;27.896;2022-10-15T04:51:25;6.32;;;4.50;;
43429;SDS011;29028;43.234;27.896;2022-10-15T04:51:47;6.40;;;4.32;;
43429;SDS011;29028;43.234;27.896;2022-10-15T04:52:08;5.65;;;3.97;;
43429;SDS011;29028;43.234;27.896;2022-10-15T04:52:29;5.60;;;4.10;;
43429;SDS011;29028;43.234;27.896;2022-10-15T04:52:50;5.38;;;4.07;;
43429;SDS011;29028;43.234;27.896;2022-10-15T04:53:10;5.82;;;4.10;;
43429;SDS011;29028;43.234;27.896;2022-10-15T04:53:32;6.75;;;4.32;;
43429;SDS011;29028;43.234;27.896;2022-10-15T04:53:54;5.95;;;4.28;;
43429;SDS011;29028;43.234;27.896;2022-10-15T04:54:15;5.35;;;3.92;;
43429;SDS011;29028;43.234;27.896;2022-10-15T04:54:36;5.55;;;4.00;;
43429;SDS011;29028;43.234;27.896;2022-10-15T04:54:57;5.10;;;3.95;;
43429;SDS011;29028;43.234;27.896;2022-10-15T04:55:18;7.03;;;4.57;;
43429;SDS011;29028;43.234;27.896;2022-10-15T04:55:39;6.03;;;4.13;;
43429;SDS011;29028;43.234;27.896;2022-10-15T04:56:00;6.20;;;4.03;;
43429;SDS011;29028;43.234;27.896;2022-10-15T04:56:23;5.30;;;3.70;;
43429;SDS011;29028;43.234;27.896;2022-10-15T04:56:44;4.97;;;3.78;;
43429;SDS011;29028;43.234;27.896;2022-10-15T04:57:05;5.70;;;4.17;;
43429;SDS011;29028;43.234;27.896;2022-10-15T04:57:26;6.32;;;4.25;;
43429;SDS011;29028;43.234;27.896;2022-10-15T04:57:48;5.57;;;4.18;;
43429;SDS011;29028;43.234;27.896;2022-10-15T04:58:08;5.90;;;4.07;;
43429;SDS011;29028;43.234;27.896;2022-10-15T04:58:30;6.22;;;4.43;;
43429;SDS011;29028;43.234;27.896;2022-10-15T04:58:51;6.05;;;4.80;;
43429;SDS011;29028;43.234;27.896;2022-10-15T04:59:13;5.28;;;4.00;;
43429;SDS011;29028;43.234;27.896;2022-10-15T04:59:34;5.30;;;3.70;;
43429;SDS011;29028;43.234;27.896;2022-10-15T04:59:55;5.50;;;3.77;;
43429;SDS011;29028;43.234;27.896;2022-10-15T05:00:16;5.05;;;3.80;;
43429;SDS011;29028;43.234;27.896;2022-10-15T05:00:37;4.78;;;3.78;;
43429;SDS011;29028;43.234;27.896;2022-10-15T05:00:59;5.55;;;4.25;;
43429;SDS011;29028;43.234;27.896;2022-10-15T05:01:20;5.72;;;4.05;;
43429;SDS011;29028;43.234;27.896;2022-10-15T05:01:41;5.13;;;3.78;;
43429;SDS011;29028;43.234;27.896;2022-10-15T05:02:02;5.60;;;4.00;;
43429;SDS011;29028;43.234;27.896;2022-10-15T05:02:23;5.35;;;3.90;;
43429;SDS011;29028;43.234;27.896;2022-10-15T05:02:46;5.32;;;4.30;;
43429;SDS011;29028;43.234;27.896;2022-10-15T05:03:07;6.15;;;3.95;;
43429;SDS011;29028;43.234;27.896;2022-10-15T05:03:28;6.43;;;3.97;;
43429;SDS011;29028;43.234;27.896;2022-10-15T05:03:49;5.28;;;4.10;;
43429;SDS011;29028;43.234;27.896;2022-10-15T05:04:11;4.90;;;3.80;;
43429;SDS011;29028;43.234;27.896;2022-10-15T05:04:32;4.90;;;3.90;;
43429;SDS011;29028;43.234;27.896;2022-10-15T05:04:53;5.47;;;3.90;;
43429;SDS011;29028;43.234;27.896;2022-10-15T05:05:14;5.25;;;3.70;;
43429;SDS011;29028;43.234;27.896;2022-10-15T05:05:35;6.13;;;3.87;;
43429;SDS011;29028;43.234;27.896;2022-10-15T05:05:59;5.40;;;4.23;;
43429;SDS011;29028;43.234;27.896;2022-10-15T05:06:21;5.63;;;3.97;;
43429;SDS011;29028;43.234;27.896;2022-10-15T05:06:42;7.38;;;4.57;;
43429;SDS011;29028;43.234;27.896;2022-10-15T05:07:04;6.05;;;3.92;;
43429;SDS011;29028;43.234;27.896;2022-10-15T05:07:25;6.18;;;4.35;;
43429;SDS011;29028;43.234;27.896;2022-10-15T05:07:46;6.22;;;4.13;;
43429;SDS011;29028;43.234;27.896;2022-10-15T05:08:07;5.80;;;3.97;;
43429;SDS011;29028;43.234;27.896;2022-10-15T05:08:27;5.63;;;4.05;;
43429;SDS011;29028;43.234;27.896;2022-10-15T05:08:48;5.43;;;4.20;;
43429;SDS011;29028;43.234;27.896;2022-10-15T05:09:11;5.72;;;4.15;;
43429;SDS011;29028;43.234;27.896;2022-10-15T05:09:32;5.72;;;3.83;;
43429;SDS011;29028;43.234;27.896;2022-10-15T05:09:53;5.03;;;3.70;;
43429;SDS011;29028;43.234;27.896;2022-10-15T05:10:14;5.15;;;3.70;;
43429;SDS011;29028;43.234;27.896;2022-10-15T05:10:35;5.97;;;3.83;;
43429;SDS011;29028;43.234;27.896;2022-10-15T05:10:58;5.15;;;3.63;;
43429;SDS011;29028;43.234;27.896;2022-10-15T05:11:21;5.07;;;3.80;;
43429;SDS011;29028;43.234;27.896;2022-10-15T05:11:43;5.65;;;4.07;;
43429;SDS011;29028;43.234;27.896;2022-10-15T05:12:05;5.20;;;3.80;;
43429;SDS011;29028;43.234;27.896;2022-10-15T05:12:26;4.70;;;3.45;;
43429;SDS011;29028;43.234;27.896;2022-10-15T05:12:47;5.30;;;3.53;;
43429;SDS011;29028;43.234;27.896;2022-10-15T05:13:08;4.93;;;3.55;;
43429;SDS011;29028;43.234;27.896;2022-10-15T05:13:29;4.90;;;3.70;;
43429;SDS011;29028;43.234;27.896;2022-10-15T05:13:53;5.30;;;3.90;;
43429;SDS011;29028;43.234;27.896;2022-10-15T05:14:15;5.72;;;3.80;;
43429;SDS011;29028;43.234;27.896;2022-10-15T05:14:35;4.70;;;3.58;;
43429;SDS011;29028;43.234;27.896;2022-10-15T05:14:57;4.88;;;3.63;;
43429;SDS011;29028;43.234;27.896;2022-10-15T05:15:19;5.28;;;3.58;;
43429;SDS011;29028;43.234;27.896;2022-10-15T05:15:40;4.95;;;3.50;;
43429;SDS011;29028;43.234;27.896;2022-10-15T05:16:07;5.05;;;3.90;;
43429;SDS011;29028;43.234;27.896;2022-10-15T05:16:28;5.03;;;3.95;;
43429;SDS011;29028;43.234;27.896;2022-10-15T05:16:50;4.93;;;3.85;;
43429;SDS011;29028;43.234;27.896;2022-10-15T05:17:11;4.78;;;3.70;;
43429;SDS011;29028;43.234;27.896;2022-10-15T05:17:32;4.70;;;3.72;;
43429;SDS011;29028;43.234;27.896;2022-10-15T05:17:55;5.07;;;3.70;;
43429;SDS011;29028;43.234;27.896;2022-10-15T05:18:15;5.18;;;3.83;;
43429;SDS011;29028;43.234;27.896;2022-10-15T05:18:36;5.40;;;3.88;;
43429;SDS011;29028;43.234;27.896;2022-10-15T05:18:59;4.40;;;3.50;;
43429;SDS011;29028;43.234;27.896;2022-10-15T05:19:21;5.50;;;3.63;;
43429;SDS011;29028;43.234;27.896;2022-10-15T05:19:42;6.43;;;4.03;;
43429;SDS011;29028;43.234;27.896;2022-10-15T05:20:04;4.88;;;3.72;;
43429;SDS011;29028;43.234;27.896;2022-10-15T05:20:26;4.82;;;3.70;;
43429;SDS011;29028;43.234;27.896;2022-10-15T05:20:47;5.10;;;3.92;;
43429;SDS011;29028;43.234;27.896;2022-10-15T05:21:08;5.47;;;3.88;;
43429;SDS011;29028;43.234;27.896;2022-10-15T05:21:30;5.93;;;3.90;;
43429;SDS011;29028;43.234;27.896;2022-10-15T05:21:53;5.72;;;3.83;;
43429;SDS011;29028;43.234;27.896;2022-10-15T05:22:13;5.68;;;3.47;;
43429;SDS011;29028;43.234;27.896;2022-10-15T05:22:34;4.73;;;3.50;;
43429;SDS011;29028;43.234;27.896;2022-10-15T05:22:55;4.50;;;3.50;;
43429;SDS011;29028;43.234;27.896;2022-10-15T05:23:16;4.75;;;3.60;;
43429;SDS011;29028;43.234;27.896;2022-10-15T05:23:38;5.47;;;3.83;;
43429;SDS011;29028;43.234;27.896;2022-10-15T05:23:59;4.18;;;3.50;;
43429;SDS011;29028;43.234;27.896;2022-10-15T05:24:20;4.25;;;3.53;;
43429;SDS011;29028;43.234;27.896;2022-10-15T05:24:42;5.05;;;3.85;;
43429;SDS011;29028;43.234;27.896;2022-10-15T05:25:03;5.30;;;3.88;;
43429;SDS011;29028;43.234;27.896;2022-10-15T05:25:24;4.57;;;3.53;;
43429;SDS011;29028;43.234;27.896;2022-10-15T05:25:45;6.30;;;3.65;;
43429;SDS011;29028;43.234;27.896;2022-10-15T05:26:06;5.72;;;3.60;;
43429;SDS011;29028;43.234;27.896;2022-10-15T05:26:31;5.00;;;3.60;;
43429;SDS011;29028;43.234;27.896;2022-10-15T05:26:52;5.00;;;3.50;;
43429;SDS011;29028;43.234;27.896;2022-10-15T05:27:13;4.93;;;3.60;;
43429;SDS011;29028;43.234;27.896;2022-10-15T05:27:34;5.28;;;3.72;;
43429;SDS011;29028;43.234;27.896;2022-10-15T05:27:55;5.05;;;3.70;;
43429;SDS011;29028;43.234;27.896;2022-10-15T05:28:16;5.70;;;3.73;;
43429;SDS011;29028;43.234;27.896;2022-10-15T05:28:37;5.88;;;3.70;;
43429;SDS011;29028;43.234;27.896;2022-10-15T05:28:59;4.60;;;3.33;;
43429;SDS011;29028;43.234;27.896;2022-10-15T05:29:20;4.53;;;3.60;;
43429;SDS011;29028;43.234;27.896;2022-10-15T05:29:41;4.17;;;3.57;;
43429;SDS011;29028;43.234;27.896;2022-10-15T05:30:02;4.80;;;3.83;;
43429;SDS011;29028;43.234;27.896;2022-10-15T05:30:25;5.40;;;3.72;;
43429;SDS011;29028;43.234;27.896;2022-10-15T05:30:46;5.78;;;3.88;;
43429;SDS011;29028;43.234;27.896;2022-10-15T05:31:07;5.45;;;3.80;;
43429;SDS011;29028;43.234;27.896;2022-10-15T05:31:30;6.30;;;3.90;;
43429;SDS011;29028;43.234;27.896;2022-10-15T05:31:52;5.05;;;3.40;;
43429;SDS011;29028;43.234;27.896;2022-10-15T05:32:14;4.75;;;3.42;;
43429;SDS011;29028;43.234;27.896;2022-10-15T05:32:35;5.13;;;3.50;;
43429;SDS011;29028;43.234;27.896;2022-10-15T05:32:57;6.03;;;3.63;;
43429;SDS011;29028;43.234;27.896;2022-10-15T05:33:18;5.05;;;3.60;;
43429;SDS011;29028;43.234;27.896;2022-10-15T05:33:39;4.82;;;3.75;;
43429;SDS011;29028;43.234;27.896;2022-10-15T05:34:04;4.38;;;3.35;;
43429;SDS011;29028;43.234;27.896;2022-10-15T05:34:26;5.03;;;3.83;;
43429;SDS011;29028;43.234;27.896;2022-10-15T05:34:49;4.65;;;3.47;;
43429;SDS011;29028;43.234;27.896;2022-10-15T05:35:10;6.10;;;3.80;;
43429;SDS011;29028;43.234;27.896;2022-10-15T05:35:32;6.15;;;4.00;;
43429;SDS011;29028;43.234;27.896;2022-10-15T05:35:53;5.50;;;3.95;;
43429;SDS011;29028;43.234;27.896;2022-10-15T05:36:14;5.43;;;3.53;;
43429;SDS011;29028;43.234;27.896;2022-10-15T05:36:36;4.85;;;3.67;;
43429;SDS011;29028;43.234;27.896;2022-10-15T05:36:58;4.43;;;3.60;;
43429;SDS011;29028;43.234;27.896;2022-10-15T05:37:19;4.90;;;3.75;;
43429;SDS011;29028;43.234;27.896;2022-10-15T05:37:40;5.30;;;3.50;;
43429;SDS011;29028;43.234;27.896;2022-10-15T05:38:02;4.55;;;3.30;;
43429;SDS011;29028;43.234;27.896;2022-10-15T05:38:23;4.70;;;3.70;;
43429;SDS011;29028;43.234;27.896;2022-10-15T05:38:44;4.88;;;3.80;;
43429;SDS011;29028;43.234;27.896;2022-10-15T05:39:06;4.97;;;3.83;;
43429;SDS011;29028;43.234;27.896;2022-10-15T05:39:29;4.93;;;3.67;;
43429;SDS011;29028;43.234;27.896;2022-10-15T05:39:50;5.72;;;3.70;;
43429;SDS011;29028;43.234;27.896;2022-10-15T05:40:11;6.03;;;3.70;;
43429;SDS011;29028;43.234;27.896;2022-10-15T05:40:32;5.00;;;3.90;;
43429;SDS011;29028;43.234;27.896;2022-10-15T05:40:54;5.78;;;3.40;;
43429;SDS011;29028;43.234;27.896;2022-10-15T05:41:15;5.72;;;3.47;;
43429;SDS011;29028;43.234;27.896;2022-10-15T05:41:36;4.60;;;3.60;;
43429;SDS011;29028;43.234;27.896;2022-10-15T05:41:57;4.95;;;3.63;;
43429;SDS011;29028;43.234;27.896;2022-10-15T05:42:19;5.25;;;3.63;;
43429;SDS011;29028;43.234;27.896;2022-10-15T05:42:40;5.10;;;3.47;;
43429;SDS011;29028;43.234;27.896;2022-10-15T05:43:01;5.10;;;3.67;;
43429;SDS011;29028;43.234;27.896;2022-10-15T05:43:21;5.18;;;3.53;;
43429;SDS011;29028;43.234;27.896;2022-10-15T05:43:44;5.60;;;4.00;;
43429;SDS011;29028;43.234;27.896;2022-10-15T05:44:05;4.90;;;3.92;;
43429;SDS011;29028;43.234;27.896;2022-10-15T05:44:26;5.80;;;3.78;;
43429;SDS011;29028;43.234;27.896;2022-10-15T05:44:48;5.75;;;3.72;;
43429;SDS011;29028;43.234;27.896;2022-10-15T05:45:09;5.07;;;3.63;;
43429;SDS011;29028;43.234;27.896;2022-10-15T05:45:30;5.03;;;3.58;;
43429;SDS011;29028;43.234;27.896;2022-10-15T05:45:52;4.95;;;3.50;;
43429;SDS011;29028;43.234;27.896;2022-10-15T05:46:13;5.18;;;3.60;;
43429;SDS011;29028;43.234;27.896;2022-10-15T05:46:35;5.07;;;3.53;;
43429;SDS011;29028;43.234;27.896;2022-10-15T05:46:56;4.63;;;3.47;;
43429;SDS011;29028;43.234;27.896;2022-10-15T05:47:17;5.68;;;3.70;;
43429;SDS011;29028;43.234;27.896;2022-10-15T05:47:38;6.15;;;3.55;;
43429;SDS011;29028;43.234;27.896;2022-10-15T05:48:01;5.10;;;3.40;;
43429;SDS011;29028;43.234;27.896;2022-10-15T05:48:22;4.75;;;3.40;;
43429;SDS011;29028;43.234;27.896;2022-10-15T05:48:46;6.32;;;3.70;;
43429;SDS011;29028;43.234;27.896;2022-10-15T05:49:08;6.38;;;3.85;;
43429;SDS011;29028;43.234;27.896;2022-10-15T05:49:30;7.05;;;3.97;;
43429;SDS011;29028;43.234;27.896;2022-10-15T05:49:51;4.97;;;3.63;;
43429;SDS011;29028;43.234;27.896;2022-10-15T05:50:12;4.50;;;3.60;;
43429;SDS011;29028;43.234;27.896;2022-10-15T05:50:32;5.60;;;3.95;;
43429;SDS011;29028;43.234;27.896;2022-10-15T05:50:59;5.70;;;3.85;;
43429;SDS011;29028;43.234;27.896;2022-10-15T05:51:21;5.35;;;3.58;;
43429;SDS011;29028;43.234;27.896;2022-10-15T05:51:43;4.47;;;3.58;;
43429;SDS011;29028;43.234;27.896;2022-10-15T05:52:03;4.82;;;3.53;;
43429;SDS011;29028;43.234;27.896;2022-10-15T05:52:29;4.47;;;3.45;;
43429;SDS011;29028;43.234;27.896;2022-10-15T05:52:50;4.95;;;3.42;;
43429;SDS011;29028;43.234;27.896;2022-10-15T05:53:13;4.47;;;3.42;;
43429;SDS011;29028;43.234;27.896;2022-10-15T05:53:35;5.57;;;3.33;;
43429;SDS011;29028;43.234;27.896;2022-10-15T05:53:56;5.10;;;3.60;;
43429;SDS011;29028;43.234;27.896;2022-10-15T05:54:19;4.43;;;3.45;;
43429;SDS011;29028;43.234;27.896;2022-10-15T05:54:40;4.68;;;3.45;;
43429;SDS011;29028;43.234;27.896;2022-10-15T05:55:01;4.50;;;3.40;;
43429;SDS011;29028;43.234;27.896;2022-10-15T05:55:25;5.20;;;3.50;;
43429;SDS011;29028;43.234;27.896;2022-10-15T05:55:46;4.50;;;3.25;;
43429;SDS011;29028;43.234;27.896;2022-10-15T05:56:07;4.45;;;3.17;;
43429;SDS011;29028;43.234;27.896;2022-10-15T05:56:30;4.85;;;3.30;;
43429;SDS011;29028;43.234;27.896;2022-10-15T05:56:51;4.90;;;3.28;;
43429;SDS011;29028;43.234;27.896;2022-10-15T05:57:12;4.82;;;3.38;;
43429;SDS011;29028;43.234;27.896;2022-10-15T05:57:34;4.70;;;3.17;;
43429;SDS011;29028;43.234;27.896;2022-10-15T05:57:59;4.43;;;3.30;;
43429;SDS011;29028;43.234;27.896;2022-10-15T05:58:22;4.03;;;2.90;;
43429;SDS011;29028;43.234;27.896;2022-10-15T05:58:43;4.28;;;2.92;;
43429;SDS011;29028;43.234;27.896;2022-10-15T05:59:04;4.80;;;3.20;;
43429;SDS011;29028;43.234;27.896;2022-10-15T05:59:25;3.67;;;3.10;;
43429;SDS011;29028;43.234;27.896;2022-10-15T05:59:46;4.88;;;3.10;;
43429;SDS011;29028;43.234;27.896;2022-10-15T06:00:09;5.03;;;3.20;;
43429;SDS011;29028;43.234;27.896;2022-10-15T06:00:30;4.22;;;3.00;;
43429;SDS011;29028;43.234;27.896;2022-10-15T06:00:54;3.80;;;3.13;;
43429;SDS011;29028;43.234;27.896;2022-10-15T06:01:18;5.25;;;3.03;;
43429;SDS011;29028;43.234;27.896;2022-10-15T06:01:39;4.55;;;3.10;;
43429;SDS011;29028;43.234;27.896;2022-10-15T06:02:00;5.65;;;3.42;;
43429;SDS011;29028;43.234;27.896;2022-10-15T06:02:21;4.35;;;3.13;;
43429;SDS011;29028;43.234;27.896;2022-10-15T06:02:43;4.32;;;3.13;;
43429;SDS011;29028;43.234;27.896;2022-10-15T06:03:08;4.10;;;3.40;;
43429;SDS011;29028;43.234;27.896;2022-10-15T06:03:32;4.50;;;3.30;;
43429;SDS011;29028;43.234;27.896;2022-10-15T06:03:53;4.65;;;3.05;;
43429;SDS011;29028;43.234;27.896;2022-10-15T06:04:16;3.80;;;2.77;;
43429;SDS011;29028;43.234;27.896;2022-10-15T06:04:41;4.18;;;2.95;;
43429;SDS011;29028;43.234;27.896;2022-10-15T06:05:02;4.47;;;3.17;;
43429;SDS011;29028;43.234;27.896;2022-10-15T06:05:25;3.53;;;2.75;;
43429;SDS011;29028;43.234;27.896;2022-10-15T06:05:46;4.70;;;2.97;;
43429;SDS011;29028;43.234;27.896;2022-10-15T06:06:14;3.58;;;2.70;;
43429;SDS011;29028;43.234;27.896;2022-10-15T06:06:41;4.28;;;3.20;;
43429;SDS011;29028;43.234;27.896;2022-10-15T06:07:01;4.25;;;2.92;;
43429;SDS011;29028;43.234;27.896;2022-10-15T06:07:22;4.30;;;3.10;;
43429;SDS011;29028;43.234;27.896;2022-10-15T06:07:44;4.22;;;3.20;;
43429;SDS011;29028;43.234;27.896;2022-10-15T06:08:04;3.85;;;2.92;;
43429;SDS011;29028;43.234;27.896;2022-10-15T06:08:27;4.30;;;2.90;;
43429;SDS011;29028;43.234;27.896;2022-10-15T06:08:49;5.00;;;3.17;;
43429;SDS011;29028;43.234;27.896;2022-10-15T06:09:10;4.60;;;3.17;;